113 Куст

Карта отелей и гостиниц, располагающихся рядом с аэропортом 113 Куст :

1100-й км Ханты-Мансийский автономный округ - Югра 61° 19' 17.4612" N, 62° 32' 4.4412" E
113 Куст Ямало-Ненецкий автономный округ 66° 47' 4.8588" N, 79° 35' 34.9188" E
Код аэродрома ИКАО
HB65
Код аэродрома RU
ХБ65
Координаты
N66.78468° E079.59303°
Превышение над уровнем моря
46
Основная полоса
Курс магнитный
Длина основной ВПП
Ширина основной ВПП
Покрытие основной ВПП
Освещение ВПП
Тип: 
Вертодром
Класс аэродрома: 
Принадлежность: 
Статус: 
Недействующий
Сайт: 
E-mail аэродрома: 
Страна: 
Россия
Регион: 
Ямало-Ненецкий автономный округ
Город: 
Дополнительная информация: 

Найти трансфер

С помощью этой формы Вы можете найти трансфер из аэропорта 113 Куст в город, аэропорт или вокзал:

Карта места

Javascript is required to view this map.

Погода в аэропортах:

Авиационная погода в Пскове

Регион: 
Погода METAR: 
ULOO 190100Z AUTO 16002MPS 130V190 9999 -SN ///018/// M09/M10 Q1016 RMK QFE758
Время наблюдения
2021-01-19T01:00:00Z
Температура C
-9.0
Точка росы
-10.0
Направление ветра
160
Скорость ветра (узлы)
4
Метео видимость
6.21
Явления погоды
-SN
Условия полета

Авиационная погода в Москве - Остафьево

Регион: 
Погода METAR: 
UUMO 190100Z 28001MPS 9999 -SN OVC011 M17/M19 Q1016 R25/420245 NOSIG RMK QFE746/0995
Время наблюдения
2021-01-19T01:00:00Z
Температура C
-17.0
Точка росы
-19.0
Направление ветра
280
Скорость ветра (узлы)
2
Метео видимость
6.21
Явления погоды
-SN
Условия полета
MVFR
Аэропорт подробнее: 

Авиационная погода в Йоэнсуу

Регион: 
Погода METAR: 
EFJO 190020Z AUTO 16005KT 9999 -SN BKN006 OVC025 M07/M08 Q1010
Время наблюдения
2021-01-19T00:20:00Z
Температура C
-7.0
Точка росы
-8.0
Направление ветра
160
Скорость ветра (узлы)
5
Метео видимость
6.21
Явления погоды
-SN
Условия полета
IFR

Авиационная погода в аэропорту Байкал

Регион: 
Погода METAR: 
UIUU 190030Z 27002MPS 6000 2400NE FU NSC M31/M34 Q1011 R26/820550 NOSIG RMK QFE714/0952
Время наблюдения
2021-01-19T00:30:00Z
Температура C
-31.0
Точка росы
-34.0
Направление ветра
270
Скорость ветра (узлы)
4
Метео видимость
3.73
Явления погоды
FU
Условия полета
MVFR
Аэропорт подробнее: